Time;durP1;ratioP1;P1;durP2;ratioP2;P2;SDS_P1;SDS_P2;PMS_P1;PMS_P2;Temp;Humidity;BMP_temperature;BMP_pressure;BME280_temperature;BME280_humidity;BME280_pressure;Samples;Min_cycle;Max_cycle;Signal;HPM_P1;HPM_P2
2021/06/30 00:00:29;;;;;;;10.45;6.93;;;;;;;13.77;70.71;101489.50;4968342;28;20081;-84
2021/06/30 00:02:55;;;;;;;9.25;5.82;;;;;;;13.59;70.92;101476.28;4964365;28;20023;-83
2021/06/30 00:05:20;;;;;;;10.55;6.25;;;;;;;13.60;71.59;101509.53;4954027;28;20023;-84
2021/06/30 00:07:46;;;;;;;10.48;6.53;;;;;;;13.47;72.63;101515.53;4968470;28;20514;-82
2021/06/30 00:10:12;;;;;;;8.02;5.60;;;;;;;13.34;72.20;101493.66;4950002;28;20030;-86
2021/06/30 00:12:37;;;;;;;10.95;6.03;;;;;;;12.92;72.73;101462.38;4962531;28;20487;-84
2021/06/30 00:15:24;;;;;;;9.80;5.95;;;;;;;13.29;73.12;101512.25;4945093;28;20438;-84
2021/06/30 00:17:50;;;;;;;9.18;5.60;;;;;;;13.28;72.69;101507.84;4956036;28;20121;-84
2021/06/30 00:20:15;;;;;;;11.88;6.22;;;;;;;13.34;72.44;101515.25;4962750;28;20105;-84
2021/06/30 00:22:41;;;;;;;11.13;6.40;;;;;;;13.28;72.27;101505.13;4951961;28;20026;-84
2021/06/30 00:25:07;;;;;;;10.63;6.55;;;;;;;13.22;73.09;101505.81;4952172;28;20030;-86
2021/06/30 00:27:33;;;;;;;9.50;5.65;;;;;;;13.09;73.04;101485.59;4977464;28;20065;-84
2021/06/30 00:29:59;;;;;;;11.15;6.57;;;;;;;13.25;72.99;101502.75;4970948;28;20108;-86
2021/06/30 00:32:24;;;;;;;8.98;5.95;;;;;;;13.29;72.63;101501.44;4980837;28;20039;-85
2021/06/30 00:34:50;;;;;;;10.43;6.30;;;;;;;13.32;72.49;101503.78;4958563;28;20023;-84
2021/06/30 00:37:16;;;;;;;8.90;5.82;;;;;;;13.03;72.10;101461.16;4971721;28;20030;-83
2021/06/30 00:39:41;;;;;;;8.55;6.10;;;;;;;13.13;71.64;101491.50;4966498;28;20015;-86
2021/06/30 00:42:07;;;;;;;9.60;5.97;;;;;;;13.22;72.16;101503.09;4953928;28;20035;-84
2021/06/30 00:44:35;;;;;;;10.90;6.20;;;;;;;13.15;71.77;101490.31;4971418;28;20037;-85
2021/06/30 00:47:02;;;;;;;13.90;6.38;;;;;;;13.12;72.02;101498.75;4969147;28;20503;-86
2021/06/30 00:49:27;;;;;;;10.75;6.15;;;;;;;13.08;72.52;101500.13;4955762;28;20019;-86
2021/06/30 00:51:53;;;;;;;11.77;6.47;;;;;;;13.02;72.10;101500.81;4955560;28;20084;-86
2021/06/30 00:54:19;;;;;;;10.10;5.97;;;;;;;13.03;72.49;101510.59;4955309;28;20065;-85
2021/06/30 00:56:44;;;;;;;10.23;6.05;;;;;;;12.96;72.49;101502.34;4985940;28;20027;-86
2021/06/30 00:59:12;;;;;;;10.10;6.20;;;;;;;12.74;72.59;101493.13;4952264;28;20015;-86
2021/06/30 01:01:38;;;;;;;11.45;6.55;;;;;;;12.79;72.75;101499.88;4981329;28;20032;-86
2021/06/30 01:04:03;;;;;;;15.27;6.80;;;;;;;12.60;72.80;101468.72;4971641;28;20502;-86
2021/06/30 01:06:29;;;;;;;11.93;6.13;;;;;;;12.85;72.96;101505.41;4948363;28;20035;-85
2021/06/30 01:08:54;;;;;;;12.20;6.32;;;;;;;12.86;72.39;101500.84;4979934;28;20113;-85
2021/06/30 01:11:20;;;;;;;11.38;6.20;;;;;;;12.62;72.08;101470.25;4953389;28;20037;-85
2021/06/30 01:13:47;;;;;;;13.02;6.70;;;;;;;12.78;73.37;101501.75;4962712;28;20136;-86
2021/06/30 01:16:14;;;;;;;13.65;7.28;;;;;;;12.54;72.86;101454.91;4978723;28;20112;-85
2021/06/30 01:18:40;;;;;;;11.73;6.78;;;;;;;12.49;72.57;101449.19;4954463;28;20055;-86
2021/06/30 01:21:09;;;;;;;12.35;6.60;;;;;;;12.81;72.84;101490.59;4974549;28;20054;-85
2021/06/30 01:23:35;;;;;;;9.85;5.72;;;;;;;12.75;72.97;101483.16;4970496;28;20108;-86
2021/06/30 01:26:00;;;;;;;12.88;6.20;;;;;;;12.61;73.15;101473.94;4956997;28;20062;-86
2021/06/30 01:28:26;;;;;;;13.93;7.25;;;;;;;12.52;72.80;101486.59;4976448;28;20033;-86
2021/06/30 01:30:52;;;;;;;12.85;7.10;;;;;;;12.51;73.12;101489.47;4956552;28;20039;-86
2021/06/30 01:33:19;;;;;;;13.23;7.25;;;;;;;12.36;72.96;101465.06;4974519;28;20058;-86
2021/06/30 01:35:44;;;;;;;12.77;7.28;;;;;;;12.43;72.93;101489.47;4970553;28;20026;-87
2021/06/30 01:38:10;;;;;;;14.07;7.25;;;;;;;12.15;73.45;101452.09;4973922;28;20038;-86
2021/06/30 01:40:35;;;;;;;11.40;7.43;;;;;;;12.19;73.68;101474.16;4958732;28;20030;-85
2021/06/30 01:43:01;;;;;;;14.65;7.55;;;;;;;12.16;73.57;101459.16;4974572;28;20467;-86
2021/06/30 01:45:27;;;;;;;12.50;7.13;;;;;;;12.07;73.35;101444.84;4986018;28;20037;-86
2021/06/30 01:47:53;;;;;;;12.15;7.43;;;;;;;12.41;73.64;101499.56;4971994;28;20023;-86
2021/06/30 01:50:19;;;;;;;11.68;6.63;;;;;;;12.37;73.33;101490.16;4957595;28;20462;-86
2021/06/30 01:52:45;;;;;;;10.63;6.95;;;;;;;12.38;72.75;101481.88;4974673;28;20085;-85
2021/06/30 01:55:12;;;;;;;13.15;7.13;;;;;;;12.44;72.13;101491.16;4954644;28;20034;-87
2021/06/30 01:57:43;;;;;;;11.52;6.20;;;;;;;12.23;72.46;101456.63;4965925;28;20333;-86
2021/06/30 02:00:11;;;;;;;12.48;6.38;;;;;;;12.17;72.25;101452.75;4968669;28;20057;-86
2021/06/30 02:02:39;;;;;;;12.40;6.72;;;;;;;12.14;72.77;101466.56;4973764;28;20026;-85
2021/06/30 02:05:12;;;;;;;15.77;7.32;;;;;;;12.14;73.51;101485.44;4989623;28;20058;-86
2021/06/30 02:07:38;;;;;;;10.68;6.95;;;;;;;12.05;73.60;101486.44;4970537;28;20388;-86
2021/06/30 02:10:06;;;;;;;14.23;7.18;;;;;;;11.88;73.82;101464.00;4983327;28;20054;-85
2021/06/30 02:12:32;;;;;;;9.77;6.57;;;;;;;12.03;73.82;101483.91;4957889;28;20035;-86
2021/06/30 02:14:58;;;;;;;12.05;6.28;;;;;;;11.74;73.59;101446.63;4973350;28;20026;-85
2021/06/30 02:17:23;;;;;;;14.98;6.85;;;;;;;11.82;74.34;101481.66;4958128;28;20014;-86
2021/06/30 02:19:49;;;;;;;12.30;6.85;;;;;;;11.89;74.31;101492.66;4973501;28;20045;-84
2021/06/30 02:22:18;;;;;;;12.18;7.55;;;;;;;11.94;74.32;101484.09;4986045;28;20056;-85
2021/06/30 02:24:44;;;;;;;12.30;6.90;;;;;;;11.98;73.86;101490.81;4979643;28;20145;-85
2021/06/30 02:27:11;;;;;;;11.43;6.63;;;;;;;11.87;73.74;101473.97;4952375;28;20026;-86
2021/06/30 02:29:37;;;;;;;13.82;7.18;;;;;;;11.71;74.00;101446.97;4972611;28;20018;-86
2021/06/30 02:32:03;;;;;;;16.17;7.35;;;;;;;11.91;74.11;101474.50;4991451;28;20038;-86
2021/06/30 02:34:28;;;;;;;16.05;6.85;;;;;;;11.98;73.52;101480.03;4955911;28;20052;-86
2021/06/30 02:36:54;;;;;;;14.18;7.13;;;;;;;11.93;73.59;101480.53;4982197;28;20368;-85
2021/06/30 02:39:19;;;;;;;14.32;7.75;;;;;;;11.67;73.15;101469.88;4967560;28;20022;-86
2021/06/30 02:41:45;;;;;;;13.02;7.15;;;;;;;11.70;73.49;101491.09;4974710;28;20046;-85
2021/06/30 02:44:10;;;;;;;11.98;6.72;;;;;;;11.65;73.80;101493.44;4956337;28;20030;-86
2021/06/30 02:46:36;;;;;;;13.88;6.55;;;;;;;11.64;73.82;101498.00;4974705;28;20026;-86
2021/06/30 02:49:02;;;;;;;13.70;6.60;;;;;;;11.66;73.68;101495.13;4982129;28;20069;-87
2021/06/30 02:51:27;;;;;;;10.93;6.40;;;;;;;11.58;73.35;101485.16;4989419;28;20117;-86
2021/06/30 02:53:52;;;;;;;9.23;6.00;;;;;;;11.37;74.19;101452.44;4965012;28;20491;-86
2021/06/30 02:56:21;;;;;;;15.43;6.40;;;;;;;11.56;73.25;101492.56;4964189;28;20027;-86
2021/06/30 02:58:48;;;;;;;10.23;6.60;;;;;;;11.32;73.96;101465.56;4972427;28;20844;-86
2021/06/30 03:01:14;;;;;;;12.18;6.57;;;;;;;11.30;74.50;101465.75;4955475;28;20030;-86
2021/06/30 03:03:39;;;;;;;11.07;6.10;;;;;;;11.35;73.79;101484.06;4973731;28;20077;-86
2021/06/30 03:06:05;;;;;;;12.02;7.20;;;;;;;11.28;73.56;101489.28;4968453;28;20042;-86
2021/06/30 03:08:30;;;;;;;13.80;6.88;;;;;;;11.11;73.15;101471.38;4986207;28;20018;-86
2021/06/30 03:10:55;;;;;;;10.07;5.88;;;;;;;11.14;73.11;101508.72;4985077;28;20487;-85
2021/06/30 03:13:21;;;;;;;9.13;4.97;;;;;;;10.80;73.54;101477.28;4973051;28;20018;-86
2021/06/30 03:15:48;;;;;;;7.45;4.65;;;;;;;10.60;73.86;101476.66;4940349;28;20098;-85
2021/06/30 03:18:14;;;;;;;9.43;4.82;;;;;;;10.36;74.22;101488.09;4974228;28;20037;-86
2021/06/30 03:20:39;;;;;;;9.35;5.28;;;;;;;10.29;74.69;101487.00;4961708;28;20026;-86
2021/06/30 03:23:04;;;;;;;8.35;4.93;;;;;;;10.36;75.42;101504.22;4973787;28;20105;-85
2021/06/30 03:25:30;;;;;;;9.65;5.40;;;;;;;10.20;75.98;101493.31;4949949;28;20026;-85
2021/06/30 03:27:55;;;;;;;12.85;5.57;;;;;;;10.13;77.48;101507.38;4961892;28;20026;-86
2021/06/30 03:30:21;;;;;;;10.27;5.65;;;;;;;10.17;77.23;101493.63;4964460;28;20073;-85
2021/06/30 03:32:47;;;;;;;12.65;7.10;;;;;;;10.29;77.70;101492.38;4967850;28;20026;-85
2021/06/30 03:35:12;;;;;;;12.02;5.70;;;;;;;10.41;77.79;101493.84;4965247;28;20022;-85
2021/06/30 03:37:38;;;;;;;13.55;6.57;;;;;;;10.51;77.58;101496.44;4965105;28;20110;-86
2021/06/30 03:40:04;;;;;;;9.68;5.82;;;;;;;10.57;78.04;101495.81;4965852;28;20045;-85
2021/06/30 03:42:30;;;;;;;12.95;6.32;;;;;;;10.59;77.90;101487.59;4956809;28;20106;-86
2021/06/30 03:44:56;;;;;;;8.65;5.22;;;;;;;10.63;78.36;101497.84;4968597;28;20113;-85
2021/06/30 03:47:21;;;;;;;11.18;5.65;;;;;;;10.61;78.03;101488.25;4966179;28;20113;-85
2021/06/30 03:49:47;;;;;;;11.93;6.57;;;;;;;10.44;77.26;101438.91;4947020;28;20116;-85
2021/06/30 03:52:12;;;;;;;9.45;5.63;;;;;;;10.62;77.23;101471.13;4963844;28;20030;-85
2021/06/30 03:54:38;;;;;;;10.35;5.57;;;;;;;10.54;78.37;101479.97;4951710;28;20064;-86
2021/06/30 03:57:03;;;;;;;10.45;5.53;;;;;;;10.53;78.75;101480.97;4970604;28;20034;-85
2021/06/30 03:59:29;;;;;;;13.05;6.15;;;;;;;10.64;78.59;101496.00;4954163;28;20114;-85
2021/06/30 04:01:54;;;;;;;10.38;5.40;;;;;;;10.60;78.92;101473.13;4953018;28;20033;-85
2021/06/30 04:04:20;;;;;;;13.55;6.50;;;;;;;10.64;78.52;101469.97;4963953;28;20030;-86
2021/06/30 04:06:46;;;;;;;11.48;5.40;;;;;;;10.78;78.49;101493.59;4978162;28;20097;-85
2021/06/30 04:09:12;;;;;;;10.90;5.47;;;;;;;10.72;78.75;101494.22;4966585;28;20026;-84
2021/06/30 04:11:38;;;;;;;11.05;5.78;;;;;;;10.72;78.99;101498.78;4964782;28;20384;-85
2021/06/30 04:14:03;;;;;;;10.93;5.50;;;;;;;10.66;79.21;101470.63;4951551;28;20068;-85
2021/06/30 04:16:29;;;;;;;12.90;5.97;;;;;;;10.53;79.26;101446.88;4949710;28;20028;-85
2021/06/30 04:18:54;;;;;;;11.30;5.68;;;;;;;10.81;79.19;101481.66;4957386;28;20030;-85
2021/06/30 04:21:20;;;;;;;10.70;6.13;;;;;;;10.74;79.70;101459.94;4954359;28;20026;-85
2021/06/30 04:23:45;;;;;;;13.07;6.35;;;;;;;10.91;79.52;101466.25;4983519;28;20483;-85
2021/06/30 04:26:11;;;;;;;10.27;6.18;;;;;;;10.89;79.87;101480.84;4966083;28;20031;-85
2021/06/30 04:28:36;;;;;;;12.25;6.40;;;;;;;10.78;80.59;101472.06;4953811;28;20489;-83
2021/06/30 04:31:02;;;;;;;12.35;6.28;;;;;;;11.03;80.34;101474.03;4975666;28;20461;-86
2021/06/30 04:33:30;;;;;;;14.75;7.30;;;;;;;11.20;80.02;101470.41;4950981;28;20094;-86
2021/06/30 04:35:57;;;;;;;11.90;6.32;;;;;;;11.25;80.39;101467.25;4951024;28;20120;-85
2021/06/30 04:38:25;;;;;;;13.05;5.63;;;;;;;11.23;80.23;101452.06;4950500;28;20027;-85
2021/06/30 04:40:51;;;;;;;14.13;7.03;;;;;;;11.38;80.40;101471.16;4965978;28;20137;-86
2021/06/30 04:43:16;;;;;;;14.80;7.07;;;;;;;11.46;80.07;101462.25;4980379;28;20061;-86
2021/06/30 04:45:42;;;;;;;12.65;6.95;;;;;;;11.69;80.14;101461.63;4981860;28;20062;-86
2021/06/30 04:48:07;;;;;;;11.70;6.88;;;;;;;11.76;79.61;101450.00;4950487;28;20038;-86
2021/06/30 04:50:33;;;;;;;11.88;6.97;;;;;;;11.81;79.57;101457.59;4950087;28;20507;-86
2021/06/30 04:52:58;;;;;;;13.63;7.70;;;;;;;11.82;79.95;101456.56;4948572;28;20061;-85
2021/06/30 04:55:23;;;;;;;13.80;7.15;;;;;;;11.80;79.64;101451.38;4951729;28;20111;-85
2021/06/30 04:57:49;;;;;;;12.45;6.53;;;;;;;11.81;79.72;101444.13;4971134;28;20722;-85
2021/06/30 05:00:15;;;;;;;12.00;6.68;;;;;;;11.90;79.98;101445.00;4948329;28;20030;-85
2021/06/30 05:02:40;;;;;;;11.30;6.70;;;;;;;11.82;80.34;101443.94;4957822;28;20057;-85
2021/06/30 05:05:06;;;;;;;15.13;6.75;;;;;;;11.90;80.09;101447.69;4969914;28;20026;-86
2021/06/30 05:07:31;;;;;;;13.07;7.07;;;;;;;11.88;80.26;101434.38;4956748;28;20026;-86
2021/06/30 05:09:57;;;;;;;15.07;6.75;;;;;;;12.07;80.41;101455.63;4973089;28;20026;-85
2021/06/30 05:12:22;;;;;;;15.10;7.72;;;;;;;12.01;80.50;101441.97;4977756;28;20034;-85
2021/06/30 05:14:48;;;;;;;17.50;7.15;;;;;;;12.18;80.73;101456.28;4958942;28;20029;-86
2021/06/30 05:17:14;;;;;;;17.58;7.30;;;;;;;12.16;80.79;101455.63;4970711;28;20031;-85
2021/06/30 05:19:39;;;;;;;13.93;7.05;;;;;;;12.20;80.74;101460.50;4970682;28;20586;-85
2021/06/30 05:22:05;;;;;;;14.60;7.90;;;;;;;12.18;80.81;101461.69;4967856;28;20046;-85
2021/06/30 05:24:31;;;;;;;12.98;7.80;;;;;;;12.24;80.75;101466.41;4958606;28;20085;-85
2021/06/30 05:26:56;;;;;;;15.70;7.20;;;;;;;12.32;80.71;101456.44;4958552;28;20046;-86
2021/06/30 05:29:22;;;;;;;14.70;6.97;;;;;;;12.37;80.23;101455.09;4954074;28;20472;-85
2021/06/30 05:31:47;;;;;;;15.40;7.32;;;;;;;12.32;80.06;101461.00;4955086;28;20032;-85
2021/06/30 05:34:13;;;;;;;17.17;7.28;;;;;;;12.35;80.49;101459.81;4957860;28;20065;-86
2021/06/30 05:36:40;;;;;;;15.65;7.85;;;;;;;12.35;80.95;101449.03;4953213;28;20090;-86
2021/06/30 05:39:05;;;;;;;17.35;8.15;;;;;;;12.40;80.83;101452.88;4967635;28;20093;-86
2021/06/30 05:41:31;;;;;;;13.70;8.35;;;;;;;12.41;80.42;101449.19;4969340;28;20031;-85
2021/06/30 05:43:56;;;;;;;18.27;8.73;;;;;;;12.57;80.12;101451.03;4975795;28;20053;-85
2021/06/30 05:46:22;;;;;;;17.90;7.80;;;;;;;12.62;80.17;101445.09;4962591;28;20038;-85
2021/06/30 05:48:47;;;;;;;13.73;7.47;;;;;;;12.77;79.44;101463.09;4986342;28;20025;-85
2021/06/30 05:51:13;;;;;;;18.15;7.75;;;;;;;12.80;79.44;101456.50;4974538;28;20049;-85
2021/06/30 05:53:39;;;;;;;16.20;7.50;;;;;;;12.95;79.11;101453.94;4955808;28;20086;-84
2021/06/30 05:56:07;;;;;;;14.82;7.88;;;;;;;13.06;79.31;101460.81;4970767;28;20023;-85
2021/06/30 05:58:33;;;;;;;18.42;8.25;;;;;;;12.86;79.06;101414.47;4983578;28;20061;-85
2021/06/30 06:00:58;;;;;;;16.55;8.02;;;;;;;13.08;78.49;101431.78;4972169;28;20026;-85
2021/06/30 06:03:24;;;;;;;16.17;8.13;;;;;;;13.02;78.54;101433.34;4957621;28;20023;-84
2021/06/30 06:05:49;;;;;;;14.30;7.82;;;;;;;12.98;78.76;101437.38;4990155;28;20851;-86
2021/06/30 06:08:15;;;;;;;18.55;8.25;;;;;;;13.03;78.95;101432.31;4968005;28;20035;-85
2021/06/30 06:10:41;;;;;;;13.30;7.47;;;;;;;13.17;79.13;101447.75;4973727;28;20035;-85
2021/06/30 06:13:06;;;;;;;14.25;7.60;;;;;;;13.24;78.92;101461.41;4973184;28;20398;-86
2021/06/30 06:15:32;;;;;;;16.98;8.63;;;;;;;13.28;78.84;101457.34;4975220;28;20026;-86
2021/06/30 06:17:58;;;;;;;15.70;8.10;;;;;;;13.24;78.86;101429.00;4970364;28;20510;-85
2021/06/30 06:20:23;;;;;;;16.55;7.97;;;;;;;13.37;78.33;101436.56;4978426;28;20054;-85
2021/06/30 06:22:49;;;;;;;15.45;8.00;;;;;;;13.51;78.64;101468.22;4982284;28;20030;-85
2021/06/30 06:25:14;;;;;;;14.38;7.68;;;;;;;13.45;78.16;101441.91;4952906;28;20026;-86
2021/06/30 06:27:40;;;;;;;14.63;7.57;;;;;;;13.58;77.84;101450.28;4972988;28;20140;-85
2021/06/30 06:30:07;;;;;;;14.23;6.93;;;;;;;13.54;77.54;101438.13;4992132;28;20038;-86
2021/06/30 06:32:33;;;;;;;12.52;7.05;;;;;;;13.61;76.88;101444.50;4951516;28;20026;-86
2021/06/30 06:34:59;;;;;;;12.68;7.05;;;;;;;13.37;76.19;101412.25;4957430;28;20022;-86
2021/06/30 06:37:24;;;;;;;13.55;7.78;;;;;;;13.67;76.17;101439.41;4958090;28;20117;-85
2021/06/30 06:39:50;;;;;;;15.65;7.88;;;;;;;13.73;75.71;101438.69;4983614;28;20631;-86
2021/06/30 06:42:15;;;;;;;17.73;8.60;;;;;;;13.79;75.80;101435.28;4987856;28;20057;-85
2021/06/30 06:44:41;;;;;;;11.80;7.00;;;;;;;13.80;75.67;101442.34;4987786;28;20160;-85
2021/06/30 06:47:07;;;;;;;11.15;6.93;;;;;;;13.74;75.77;101452.03;4971629;28;20499;-85
2021/06/30 06:49:33;;;;;;;13.40;7.47;;;;;;;13.77;75.69;101454.38;4969271;28;20069;-85
2021/06/30 06:51:59;;;;;;;12.52;7.47;;;;;;;13.60;75.95;101423.94;4966424;28;20027;-85
2021/06/30 06:54:25;;;;;;;12.38;6.70;;;;;;;13.75;75.54;101461.81;4982590;28;20073;-86
2021/06/30 06:56:51;;;;;;;14.20;7.15;;;;;;;13.67;74.97;101451.06;4971108;28;20042;-85
2021/06/30 06:59:16;;;;;;;12.70;7.13;;;;;;;13.58;74.53;101436.78;4982081;28;20105;-85
2021/06/30 07:01:42;;;;;;;11.88;7.43;;;;;;;13.54;73.94;101424.63;4965367;28;21015;-85
2021/06/30 07:04:07;;;;;;;11.43;7.00;;;;;;;13.72;73.86;101437.00;4957107;28;20034;-85
2021/06/30 07:06:33;;;;;;;14.63;7.05;;;;;;;13.80;73.93;101445.06;4952645;28;20022;-85
2021/06/30 07:08:58;;;;;;;14.75;7.65;;;;;;;13.86;73.11;101449.75;4983923;28;20022;-86
2021/06/30 07:11:24;;;;;;;15.57;7.65;;;;;;;13.92;73.02;101456.28;4981876;28;20049;-85
2021/06/30 07:13:49;;;;;;;13.60;7.25;;;;;;;13.98;72.73;101464.53;4976853;28;20117;-85
2021/06/30 07:16:15;;;;;;;12.38;6.88;;;;;;;14.04;72.20;101471.91;4951214;28;20029;-85
2021/06/30 07:18:40;;;;;;;13.93;7.35;;;;;;;13.86;72.41;101449.75;4951525;28;20014;-86
2021/06/30 07:21:08;;;;;;;16.08;7.45;;;;;;;14.00;72.93;101467.06;4965740;28;20547;-86
2021/06/30 07:23:34;;;;;;;13.35;7.57;;;;;;;13.97;72.98;101446.63;4954081;28;20018;-86
2021/06/30 07:26:00;;;;;;;13.40;7.88;;;;;;;13.99;72.59;101438.31;4948004;28;20045;-85
2021/06/30 07:28:26;;;;;;;12.45;6.68;;;;;;;14.11;72.45;101446.84;4981270;28;20026;-86
2021/06/30 07:30:51;;;;;;;11.55;6.90;;;;;;;14.27;70.98;101460.22;4949368;28;20449;-86
2021/06/30 07:33:17;;;;;;;15.68;6.70;;;;;;;14.13;70.46;101436.69;4949641;28;20025;-86
2021/06/30 07:35:43;;;;;;;14.00;7.03;;;;;;;14.29;70.31;101452.78;4963794;28;20100;-86
2021/06/30 07:38:08;;;;;;;12.52;7.32;;;;;;;14.35;69.55;101454.75;4967061;28;20085;-86
2021/06/30 07:40:34;;;;;;;14.10;7.40;;;;;;;14.42;69.67;101463.81;4952599;28;20065;-86
2021/06/30 07:43:00;;;;;;;17.75;8.05;;;;;;;14.64;68.79;101469.38;4966304;28;20026;-86
2021/06/30 07:45:26;;;;;;;12.90;6.68;;;;;;;14.70;68.95;101476.75;4962238;28;20372;-86
2021/06/30 07:47:53;;;;;;;13.07;6.97;;;;;;;14.63;68.93;101473.97;4960936;28;20058;-87
2021/06/30 07:50:19;;;;;;;11.60;7.03;;;;;;;14.64;68.78;101474.78;4962487;28;20022;-87
2021/06/30 07:52:47;;;;;;;13.25;7.65;;;;;;;14.68;68.96;101471.50;4956542;28;20139;-86
2021/06/30 07:55:13;;;;;;;14.00;7.40;;;;;;;14.79;68.30;101463.94;4959447;28;20032;-88
2021/06/30 07:57:38;;;;;;;13.88;7.93;;;;;;;14.71;68.01;101448.63;4963472;28;20113;-86
2021/06/30 08:00:05;;;;;;;15.35;6.28;;;;;;;14.86;68.63;101465.72;4971586;28;20019;-75
2021/06/30 08:02:33;;;;;;;10.88;6.65;;;;;;;14.92;67.87;101456.88;4965950;28;20034;-76
2021/06/30 08:05:01;;;;;;;14.15;7.30;;;;;;;15.07;68.41;101469.56;4959251;28;20033;-80
2021/06/30 08:07:26;;;;;;;10.65;6.88;;;;;;;15.08;67.22;101461.25;4966561;28;20030;-78
2021/06/30 08:09:52;;;;;;;12.20;7.20;;;;;;;15.15;66.54;101464.03;4982803;28;20116;-79
2021/06/30 08:12:17;;;;;;;11.15;6.63;;;;;;;15.25;66.51;101467.31;4948983;28;20026;-79
2021/06/30 08:14:43;;;;;;;11.80;6.47;;;;;;;15.27;66.41;101459.81;4964679;28;20065;-76
2021/06/30 08:17:08;;;;;;;14.60;6.78;;;;;;;15.39;66.41;101461.00;4950044;28;20030;-79
2021/06/30 08:19:34;;;;;;;9.88;6.75;;;;;;;15.51;66.08;101469.50;4962431;28;21092;-77
2021/06/30 08:22:00;;;;;;;12.68;6.57;;;;;;;15.60;65.43;101467.50;4958403;28;20029;-76
2021/06/30 08:24:26;;;;;;;14.15;6.00;;;;;;;15.58;65.65;101464.13;4965582;28;20422;-77
2021/06/30 08:26:52;;;;;;;12.43;6.82;;;;;;;15.59;65.15;101461.25;4960005;28;20129;-79
2021/06/30 08:29:20;;;;;;;14.80;7.30;;;;;;;15.78;64.45;101469.81;4966472;28;20387;-79
2021/06/30 08:31:45;;;;;;;13.90;6.60;;;;;;;15.80;64.24;101470.47;4967123;28;20036;-79
2021/06/30 08:34:11;;;;;;;12.43;6.60;;;;;;;15.85;64.03;101461.72;4967889;28;20039;-79
2021/06/30 08:36:36;;;;;;;12.13;6.88;;;;;;;15.99;63.37;101472.53;4970856;28;20037;-78
2021/06/30 08:39:04;;;;;;;12.85;6.85;;;;;;;16.13;62.43;101469.94;4979897;28;20078;-78
2021/06/30 08:41:29;;;;;;;11.90;7.20;;;;;;;16.17;62.67;101463.94;4964859;28;20060;-78
2021/06/30 08:43:55;;;;;;;19.05;7.45;;;;;;;16.17;63.20;101461.22;4954903;28;20495;-77
2021/06/30 08:46:21;;;;;;;14.20;7.50;;;;;;;16.21;63.38;101461.66;4983142;28;20030;-78
2021/06/30 08:48:50;;;;;;;10.18;6.85;;;;;;;16.17;62.63;101463.09;4975183;28;20066;-78
2021/06/30 08:51:22;;;;;;;13.27;7.07;;;;;;;16.12;63.22;101458.25;4989203;28;20085;-79
2021/06/30 08:53:48;;;;;;;15.60;7.50;;;;;;;16.25;62.59;101461.06;4966885;28;20038;-78
2021/06/30 08:56:13;;;;;;;12.93;7.53;;;;;;;16.33;62.45;101461.97;4950555;28;20025;-78
2021/06/30 08:58:39;;;;;;;13.60;6.53;;;;;;;16.35;62.58;101465.31;4971597;28;20034;-77
2021/06/30 09:01:04;;;;;;;13.40;6.93;;;;;;;16.36;62.80;101470.56;4957929;28;20027;-78
2021/06/30 09:03:30;;;;;;;18.40;7.47;;;;;;;16.46;62.17;101467.50;4973236;28;20069;-79
2021/06/30 09:08:36;;;;;;;10.95;6.75;;;;;;;16.53;61.90;101465.66;4987969;28;20034;-76
2021/06/30 09:11:18;;;;;;;11.68;6.25;;;;;;;16.69;61.45;101468.06;4960012;28;20069;-77
2021/06/30 09:13:44;;;;;;;12.18;7.10;;;;;;;16.95;60.60;101461.16;4967116;28;20748;-78
2021/06/30 09:16:10;;;;;;;8.82;6.38;;;;;;;17.05;60.62;101469.78;4992266;28;20080;-78
2021/06/30 09:18:37;;;;;;;11.45;6.78;;;;;;;17.03;60.30;101474.56;4993507;28;20026;-78
2021/06/30 09:21:30;;;;;;;10.57;6.75;;;;;;;16.99;60.22;101467.88;4992479;28;20029;-77
2021/06/30 09:24:08;;;;;;;11.75;7.30;;;;;;;17.04;60.35;101464.53;4984634;28;20121;-77
2021/06/30 09:26:36;;;;;;;11.70;6.57;;;;;;;17.03;59.97;101452.00;4979949;28;20030;-85
2021/06/30 09:29:05;;;;;;;11.02;6.53;;;;;;;17.06;60.18;101466.00;4965465;28;20026;-86
2021/06/30 09:31:31;;;;;;;11.10;6.90;;;;;;;17.15;60.13;101463.97;4957978;28;20037;-85
2021/06/30 09:33:57;;;;;;;12.40;6.90;;;;;;;17.14;59.97;101452.25;4956444;28;20026;-84
2021/06/30 09:36:25;;;;;;;14.68;6.75;;;;;;;17.03;60.11;101450.13;4970523;28;20034;-84
2021/06/30 09:38:51;;;;;;;12.50;7.03;;;;;;;17.19;59.27;101446.22;4951555;28;20022;-85
2021/06/30 09:41:24;;;;;;;10.05;6.90;;;;;;;17.47;58.95;101461.59;4967524;28;20093;-85
2021/06/30 09:44:00;;;;;;;14.88;7.18;;;;;;;17.68;59.24;101452.44;4952003;28;20439;-84
2021/06/30 09:46:26;;;;;;;11.13;6.80;;;;;;;17.72;59.23;101449.09;4951112;28;20037;-84
2021/06/30 09:48:59;;;;;;;11.43;7.47;;;;;;;17.84;58.99;101460.25;4954682;28;20027;-84
2021/06/30 09:51:25;;;;;;;12.23;6.63;;;;;;;18.01;58.57;101464.22;4975221;28;20032;-84
2021/06/30 09:53:51;;;;;;;12.43;7.40;;;;;;;18.09;57.49;101427.81;4980006;28;20027;-86
2021/06/30 09:56:34;;;;;;;15.30;7.30;;;;;;;19.05;55.02;101457.25;4971987;28;20030;-83
2021/06/30 09:59:01;;;;;;;13.90;7.63;;;;;;;19.28;54.85;101459.44;4957730;28;20023;-86
2021/06/30 10:01:27;;;;;;;13.82;6.97;;;;;;;19.43;53.74;101459.19;4975218;28;20091;-83
2021/06/30 10:03:52;;;;;;;12.85;6.97;;;;;;;19.82;53.04;101437.34;4993828;28;20022;-84
2021/06/30 10:06:36;;;;;;;11.18;6.57;;;;;;;19.99;51.70;101458.44;4974397;28;20018;-85
2021/06/30 10:09:07;;;;;;;12.25;7.32;;;;;;;19.71;52.01;101456.13;4974849;28;20106;-85
2021/06/30 10:11:34;;;;;;;12.27;7.03;;;;;;;19.65;51.91;101456.13;4974681;28;20030;-86
2021/06/30 10:14:01;;;;;;;11.98;7.60;;;;;;;19.55;52.52;101442.94;4991355;28;20050;-85
2021/06/30 10:16:26;;;;;;;11.35;6.85;;;;;;;19.90;52.45;101448.00;4980063;28;20037;-85
2021/06/30 10:18:54;;;;;;;12.48;6.97;;;;;;;19.93;52.78;101456.59;4983404;28;20033;-85
2021/06/30 10:21:22;;;;;;;12.45;7.15;;;;;;;19.81;52.77;101447.44;4975510;28;20034;-85
2021/06/30 10:23:49;;;;;;;10.93;7.07;;;;;;;19.60;53.37;101454.03;4974339;28;20080;-86
2021/06/30 10:26:15;;;;;;;12.00;8.10;;;;;;;19.38;53.60;101439.06;4954148;28;20035;-85
2021/06/30 10:28:42;;;;;;;11.32;7.80;;;;;;;19.25;54.29;101451.69;4941614;28;20027;-83
2021/06/30 10:31:08;;;;;;;10.20;6.97;;;;;;;19.30;53.43;101449.16;4957823;28;20034;-84
2021/06/30 10:33:38;;;;;;;14.88;7.88;;;;;;;19.32;53.56;101452.50;4974569;28;20028;-84
2021/06/30 10:36:05;;;;;;;11.43;7.88;;;;;;;19.09;54.41;101444.00;4977209;28;20070;-85
2021/06/30 10:38:54;;;;;;;11.93;6.95;;;;;;;19.02;54.00;101451.38;4990263;28;20028;-84
2021/06/30 10:41:55;;;;;;;12.50;7.28;;;;;;;18.78;55.36;101453.75;4992102;28;20472;-86
2021/06/30 10:44:23;;;;;;;12.90;8.20;;;;;;;18.97;55.67;101451.16;4960059;28;20040;-86
2021/06/30 10:46:50;;;;;;;12.77;7.30;;;;;;;19.06;55.00;101447.16;4975961;28;20023;-85
2021/06/30 10:49:17;;;;;;;9.50;7.20;;;;;;;18.98;55.31;101436.50;4974560;28;20483;-84
2021/06/30 10:51:45;;;;;;;13.60;7.47;;;;;;;18.99;55.12;101430.00;4958170;28;20045;-84
2021/06/30 10:54:32;;;;;;;10.50;7.45;;;;;;;19.65;53.97;101435.13;4991963;28;20037;-80
2021/06/30 10:57:25;;;;;;;10.88;7.47;;;;;;;19.69;53.01;101436.41;4994966;28;20022;-80
2021/06/30 11:00:04;;;;;;;12.32;8.02;;;;;;;19.46;53.87;101436.91;4993743;28;20082;-80
2021/06/30 11:02:34;;;;;;;13.32;7.30;;;;;;;19.33;54.97;101434.25;4986887;28;20030;-82
2021/06/30 11:05:12;;;;;;;14.68;7.20;;;;;;;19.22;55.66;101438.50;4992464;28;20022;-81
2021/06/30 11:07:37;;;;;;;12.82;7.45;;;;;;;19.62;55.59;101430.09;4990466;28;20562;-80
2021/06/30 11:10:20;;;;;;;12.68;8.02;;;;;;;20.15;53.44;101431.66;4977394;28;20114;-81
2021/06/30 11:12:50;;;;;;;13.93;8.25;;;;;;;20.51;52.44;101432.78;4975705;28;20053;-80
2021/06/30 11:15:34;;;;;;;13.95;8.05;;;;;;;20.82;51.14;101427.22;4971981;28;20077;-80
2021/06/30 11:18:00;;;;;;;14.65;8.80;;;;;;;21.22;49.94;101434.09;4992745;28;20045;-83